Decoded Metar for KDYA ( in ) (IATA:) | Meteo·Mobile Aviation Weather
aviador You're here:

KDYA Decoded Metar

in
Report Time2019-07-20 01:35:00
UTC Time2019-07-20 01:42:36
Flight Rules vfr VFR
WindCalm
Visibility9999 m
Phenomena:N/A
Clouds:N/A
Expected CloudBase > 800 ft AGL from Temp-Dew spread
CeilingNone
Temp24°C
Dew Point22°C (89% RH)
QNH1018 hPa
Raw Report
METAR KDYA 200135Z AUTO 00000KT 7SM CLR 24/22 A3007 RMK AO2 T02440218=

Extra information for KDYA:More info

Social comments